KBFL/BFL METAR and TAF weather

Enter ICAO airport designator
Station Type Date Time Source
KBFL METAR 2019/06/26 09:54 UTC NOAA

KBFL 260954Z AUTO 36004KT 10SM CLR 21/09 A2987 RMK AO2 SLP107 T02110089


Station Type Date Time Source
KBFL Decoded METAR 2019/06/26 09:54 UTC NOAA

BAKERSFIELD MEADOWS FIELD, CA, United States (KBFL) 35-26N 119-03W 151M
Jun 26, 2019 - 05:54 AM EDT / 2019.06.26 0954 UTC
Wind: from the N (360 degrees) at 5 MPH (4 KT):0
Visibility: 10 mile(s):0
Sky conditions: clear
Temperature: 70.0 F (21.1 C)
Dew Point: 48.0 F (8.9 C)
Relative Humidity: 45%
Pressure (altimeter): 29.87 in. Hg (1011 hPa)
ob: KBFL 260954Z AUTO 36004KT 10SM CLR 21/09 A2987 RMK AO2 SLP107 T02110089
cycle: 10

Station Type Date Time Source
KBFL TAF 2019/06/26 06:27 UTC NOAA

TAF KBFL 260524Z 2606/2706 32010KT P6SM SKC
FM260800 35006KT P6SM SKC
FM262200 31010G18KT P6SM SKC

Example: see airport list